sensor_id;sensor_type;location;lat;lon;timestamp;pressure;altitude;pressure_sealevel;temperature;humidity
10587;BME280;5341;47.606;7.576;2023-08-31T00:00:25;98394.31;;;20.93;52.61
10587;BME280;5341;47.606;7.576;2023-08-31T00:02:55;98388.88;;;20.93;52.63
10587;BME280;5341;47.606;7.576;2023-08-31T00:05:23;98392.69;;;20.92;52.59
10587;BME280;5341;47.606;7.576;2023-08-31T00:07:53;98397.56;;;20.90;52.48
10587;BME280;5341;47.606;7.576;2023-08-31T00:10:20;98401.63;;;20.88;52.80
10587;BME280;5341;47.606;7.576;2023-08-31T00:12:49;98402.97;;;20.85;52.88
10587;BME280;5341;47.606;7.576;2023-08-31T00:15:17;98392.34;;;20.84;52.96
10587;BME280;5341;47.606;7.576;2023-08-31T00:17:44;98401.31;;;20.84;52.86
10587;BME280;5341;47.606;7.576;2023-08-31T00:20:15;98386.06;;;20.83;53.00
10587;BME280;5341;47.606;7.576;2023-08-31T00:22:46;98383.63;;;20.82;53.02
10587;BME280;5341;47.606;7.576;2023-08-31T00:27:41;98382.25;;;20.79;52.84
10587;BME280;5341;47.606;7.576;2023-08-31T00:30:11;98390.66;;;20.77;53.04
10587;BME280;5341;47.606;7.576;2023-08-31T00:32:40;98419.16;;;20.75;53.14
10587;BME280;5341;47.606;7.576;2023-08-31T00:35:08;98407.97;;;20.71;53.17
10587;BME280;5341;47.606;7.576;2023-08-31T00:37:37;98413.66;;;20.70;53.27
10587;BME280;5341;47.606;7.576;2023-08-31T00:40:06;98406.03;;;20.67;53.26
10587;BME280;5341;47.606;7.576;2023-08-31T00:42:36;98405.47;;;20.65;53.43
10587;BME280;5341;47.606;7.576;2023-08-31T00:45:05;98407.63;;;20.63;53.42
10587;BME280;5341;47.606;7.576;2023-08-31T00:47:34;98413.31;;;20.61;53.58
10587;BME280;5341;47.606;7.576;2023-08-31T00:50:02;98408.16;;;20.60;53.62
10587;BME280;5341;47.606;7.576;2023-08-31T00:52:30;98411.91;;;20.59;53.61
10587;BME280;5341;47.606;7.576;2023-08-31T00:55:00;98407.81;;;20.56;53.57
10587;BME280;5341;47.606;7.576;2023-08-31T00:57:31;98408.06;;;20.55;53.71
10587;BME280;5341;47.606;7.576;2023-08-31T00:59:59;98411.06;;;20.53;53.83
10587;BME280;5341;47.606;7.576;2023-08-31T01:02:32;98413.22;;;20.51;53.77
10587;BME280;5341;47.606;7.576;2023-08-31T01:05:04;98412.38;;;20.51;53.85
10587;BME280;5341;47.606;7.576;2023-08-31T01:07:41;98409.94;;;20.49;53.92
10587;BME280;5341;47.606;7.576;2023-08-31T01:10:19;98409.13;;;20.48;54.02
10587;BME280;5341;47.606;7.576;2023-08-31T01:12:52;98407.69;;;20.46;54.07
10587;BME280;5341;47.606;7.576;2023-08-31T01:15:21;98406.06;;;20.45;54.17
10587;BME280;5341;47.606;7.576;2023-08-31T01:17:52;98399.81;;;20.44;54.09
10587;BME280;5341;47.606;7.576;2023-08-31T01:20:27;98397.34;;;20.43;54.13
10587;BME280;5341;47.606;7.576;2023-08-31T01:23:01;98396.75;;;20.41;54.18
10587;BME280;5341;47.606;7.576;2023-08-31T01:25:32;98395.94;;;20.40;54.17
10587;BME280;5341;47.606;7.576;2023-08-31T01:28:01;98398.66;;;20.40;54.26
10587;BME280;5341;47.606;7.576;2023-08-31T01:30:33;98394.31;;;20.39;54.22
10587;BME280;5341;47.606;7.576;2023-08-31T01:33:00;98400.81;;;20.38;54.36
10587;BME280;5341;47.606;7.576;2023-08-31T01:35:30;98417.09;;;20.38;54.38
10587;BME280;5341;47.606;7.576;2023-08-31T01:38:02;98415.47;;;20.37;54.28
10587;BME280;5341;47.606;7.576;2023-08-31T01:40:42;98413.84;;;20.36;54.36
10587;BME280;5341;47.606;7.576;2023-08-31T01:43:13;98421.97;;;20.36;54.34
10587;BME280;5341;47.606;7.576;2023-08-31T01:45:42;98413.25;;;20.34;54.40
10587;BME280;5341;47.606;7.576;2023-08-31T01:48:13;98428.72;;;20.34;54.38
10587;BME280;5341;47.606;7.576;2023-08-31T01:50:41;98430.59;;;20.33;54.42
10587;BME280;5341;47.606;7.576;2023-08-31T01:53:09;98435.47;;;20.31;54.48
10587;BME280;5341;47.606;7.576;2023-08-31T01:55:39;98433.84;;;20.30;54.41
10587;BME280;5341;47.606;7.576;2023-08-31T01:58:07;98429.47;;;20.29;54.77
10587;BME280;5341;47.606;7.576;2023-08-31T02:00:35;98431.63;;;20.27;54.55
10587;BME280;5341;47.606;7.576;2023-08-31T02:03:04;98433.78;;;20.25;54.66
10587;BME280;5341;47.606;7.576;2023-08-31T02:05:32;98428.34;;;20.25;54.67
10587;BME280;5341;47.606;7.576;2023-08-31T02:07:59;98432.16;;;20.24;54.70
10587;BME280;5341;47.606;7.576;2023-08-31T02:10:27;98434.28;;;20.22;54.73
10587;BME280;5341;47.606;7.576;2023-08-31T02:12:56;98438.06;;;20.21;54.81
10587;BME280;5341;47.606;7.576;2023-08-31T02:15:24;98437.25;;;20.20;54.78
10587;BME280;5341;47.606;7.576;2023-08-31T02:17:53;98441.03;;;20.19;54.80
10587;BME280;5341;47.606;7.576;2023-08-31T02:20:20;98438.56;;;20.18;54.78
10587;BME280;5341;47.606;7.576;2023-08-31T02:22:48;98434.22;;;20.17;54.92
10587;BME280;5341;47.606;7.576;2023-08-31T02:25:16;98436.13;;;20.16;54.83
10587;BME280;5341;47.606;7.576;2023-08-31T02:27:45;98432.84;;;20.14;54.92
10587;BME280;5341;47.606;7.576;2023-08-31T02:30:16;98438.00;;;20.16;54.86
10587;BME280;5341;47.606;7.576;2023-08-31T02:32:44;98447.50;;;20.13;54.97
10587;BME280;5341;47.606;7.576;2023-08-31T02:35:13;98443.13;;;20.12;54.85
10587;BME280;5341;47.606;7.576;2023-08-31T02:37:41;98443.13;;;20.12;54.95
10587;BME280;5341;47.606;7.576;2023-08-31T02:40:10;98446.94;;;20.11;54.86
10587;BME280;5341;47.606;7.576;2023-08-31T02:42:37;98456.13;;;20.10;54.99
10587;BME280;5341;47.606;7.576;2023-08-31T02:45:06;98449.03;;;20.09;55.02
10587;BME280;5341;47.606;7.576;2023-08-31T02:47:34;98451.75;;;20.09;55.10
10587;BME280;5341;47.606;7.576;2023-08-31T02:50:02;98441.16;;;20.08;54.93
10587;BME280;5341;47.606;7.576;2023-08-31T02:52:32;98444.94;;;20.07;55.13
10587;BME280;5341;47.606;7.576;2023-08-31T02:55:00;98444.13;;;20.06;55.04
10587;BME280;5341;47.606;7.576;2023-08-31T02:57:27;98443.31;;;20.06;55.09
10587;BME280;5341;47.606;7.576;2023-08-31T02:59:55;98449.81;;;20.05;55.05
10587;BME280;5341;47.606;7.576;2023-08-31T03:02:22;98450.06;;;20.03;55.06
10587;BME280;5341;47.606;7.576;2023-08-31T03:04:51;98443.81;;;20.03;55.05
10587;BME280;5341;47.606;7.576;2023-08-31T03:07:18;98458.47;;;20.02;55.15
10587;BME280;5341;47.606;7.576;2023-08-31T03:09:48;98447.84;;;20.00;55.14
10587;BME280;5341;47.606;7.576;2023-08-31T03:12:16;98457.06;;;19.99;55.12
10587;BME280;5341;47.606;7.576;2023-08-31T03:14:44;98447.25;;;19.98;55.22
10587;BME280;5341;47.606;7.576;2023-08-31T03:17:11;98452.69;;;19.98;55.23
10587;BME280;5341;47.606;7.576;2023-08-31T03:19:39;98452.69;;;19.98;55.21
10587;BME280;5341;47.606;7.576;2023-08-31T03:22:08;98454.59;;;19.98;55.14
10587;BME280;5341;47.606;7.576;2023-08-31T03:24:36;98447.50;;;19.97;55.24
10587;BME280;5341;47.606;7.576;2023-08-31T03:27:04;98451.31;;;19.96;55.32
10587;BME280;5341;47.606;7.576;2023-08-31T03:29:32;98461.34;;;19.95;55.39
10587;BME280;5341;47.606;7.576;2023-08-31T03:32:00;98457.00;;;19.94;55.31
10587;BME280;5341;47.606;7.576;2023-08-31T03:34:29;98456.16;;;19.94;55.46
10587;BME280;5341;47.606;7.576;2023-08-31T03:36:57;98456.41;;;19.92;55.49
10587;BME280;5341;47.606;7.576;2023-08-31T03:39:26;98455.59;;;19.92;55.57
10587;BME280;5341;47.606;7.576;2023-08-31T03:41:54;98462.09;;;19.90;55.51
10587;BME280;5341;47.606;7.576;2023-08-31T03:44:21;98460.47;;;19.89;55.54
10587;BME280;5341;47.606;7.576;2023-08-31T03:46:49;98464.00;;;19.90;55.45
10587;BME280;5341;47.606;7.576;2023-08-31T03:49:17;98465.06;;;19.89;55.50
10587;BME280;5341;47.606;7.576;2023-08-31T03:51:45;98469.69;;;19.88;55.55
10587;BME280;5341;47.606;7.576;2023-08-31T03:54:12;98478.06;;;19.87;55.59
10587;BME280;5341;47.606;7.576;2023-08-31T03:56:41;98473.47;;;19.87;55.65
10587;BME280;5341;47.606;7.576;2023-08-31T03:59:12;98463.66;;;19.86;55.56
10587;BME280;5341;47.606;7.576;2023-08-31T04:01:40;98472.03;;;19.85;55.63
10587;BME280;5341;47.606;7.576;2023-08-31T04:04:07;98471.22;;;19.84;55.62
10587;BME280;5341;47.606;7.576;2023-08-31T04:06:36;98477.72;;;19.83;55.66
10587;BME280;5341;47.606;7.576;2023-08-31T04:09:05;98477.16;;;19.81;55.73
10587;BME280;5341;47.606;7.576;2023-08-31T04:11:33;98489.91;;;19.81;55.71
10587;BME280;5341;47.606;7.576;2023-08-31T04:14:04;98488.25;;;19.80;55.80
10587;BME280;5341;47.606;7.576;2023-08-31T04:16:32;98483.91;;;19.79;55.97
10587;BME280;5341;47.606;7.576;2023-08-31T04:18:59;98493.94;;;19.78;55.83
10587;BME280;5341;47.606;7.576;2023-08-31T04:21:27;98491.47;;;19.77;55.76
10587;BME280;5341;47.606;7.576;2023-08-31T04:23:55;98493.63;;;19.75;55.86
10587;BME280;5341;47.606;7.576;2023-08-31T04:26:25;98493.84;;;19.73;55.79
10587;BME280;5341;47.606;7.576;2023-08-31T04:28:53;98493.03;;;19.73;55.81
10587;BME280;5341;47.606;7.576;2023-08-31T04:31:22;98494.09;;;19.72;55.75
10587;BME280;5341;47.606;7.576;2023-08-31T04:34:00;98501.41;;;19.71;56.12
10587;BME280;5341;47.606;7.576;2023-08-31T04:36:28;98507.09;;;19.70;55.97
10587;BME280;5341;47.606;7.576;2023-08-31T04:38:55;98509.00;;;19.69;55.98
10587;BME280;5341;47.606;7.576;2023-08-31T04:41:23;98515.50;;;19.68;55.88
10587;BME280;5341;47.606;7.576;2023-08-31T04:43:50;98504.88;;;19.67;56.01
10587;BME280;5341;47.606;7.576;2023-08-31T04:46:19;98507.84;;;19.65;56.10
10587;BME280;5341;47.606;7.576;2023-08-31T04:48:48;98504.56;;;19.63;55.99
10587;BME280;5341;47.606;7.576;2023-08-31T04:51:31;98506.47;;;19.63;56.09
10587;BME280;5341;47.606;7.576;2023-08-31T04:53:59;98516.72;;;19.60;56.05
10587;BME280;5341;47.606;7.576;2023-08-31T04:56:30;98518.84;;;19.58;56.08
10587;BME280;5341;47.606;7.576;2023-08-31T04:59:00;98519.09;;;19.57;56.13
10587;BME280;5341;47.606;7.576;2023-08-31T05:01:28;98522.88;;;19.56;56.02
10587;BME280;5341;47.606;7.576;2023-08-31T05:03:57;98519.56;;;19.54;56.27
10587;BME280;5341;47.606;7.576;2023-08-31T05:06:25;98526.88;;;19.53;56.25
10587;BME280;5341;47.606;7.576;2023-08-31T05:08:53;98529.84;;;19.52;56.19
10587;BME280;5341;47.606;7.576;2023-08-31T05:11:20;98543.41;;;19.52;56.29
10587;BME280;5341;47.606;7.576;2023-08-31T05:13:48;98540.91;;;19.50;56.29
10587;BME280;5341;47.606;7.576;2023-08-31T05:16:15;98540.34;;;19.48;56.35
10587;BME280;5341;47.606;7.576;2023-08-31T05:18:42;98543.06;;;19.48;56.40
10587;BME280;5341;47.606;7.576;2023-08-31T05:21:11;98552.25;;;19.47;56.38
10587;BME280;5341;47.606;7.576;2023-08-31T05:23:39;98553.34;;;19.46;56.47
10587;BME280;5341;47.606;7.576;2023-08-31T05:26:06;98557.94;;;19.46;56.51
10587;BME280;5341;47.606;7.576;2023-08-31T05:28:34;98554.41;;;19.45;56.52
10587;BME280;5341;47.606;7.576;2023-08-31T05:31:01;98564.44;;;19.45;56.59
10587;BME280;5341;47.606;7.576;2023-08-31T05:33:29;98562.78;;;19.44;56.51
10587;BME280;5341;47.606;7.576;2023-08-31T05:36:01;98561.16;;;19.43;56.59
10587;BME280;5341;47.606;7.576;2023-08-31T05:38:31;98558.44;;;19.43;56.71
10587;BME280;5341;47.606;7.576;2023-08-31T05:41:06;98560.31;;;19.42;56.73
10587;BME280;5341;47.606;7.576;2023-08-31T05:43:34;98561.16;;;19.43;56.87
10587;BME280;5341;47.606;7.576;2023-08-31T05:46:02;98564.69;;;19.43;56.90
10587;BME280;5341;47.606;7.576;2023-08-31T05:48:30;98559.00;;;19.45;56.83
10587;BME280;5341;47.606;7.576;2023-08-31T05:50:57;98570.66;;;19.45;56.85
10587;BME280;5341;47.606;7.576;2023-08-31T05:53:24;98566.66;;;19.48;56.93
10587;BME280;5341;47.606;7.576;2023-08-31T05:55:54;98563.69;;;19.49;56.94
10587;BME280;5341;47.606;7.576;2023-08-31T05:58:29;98563.22;;;19.52;56.87
10587;BME280;5341;47.606;7.576;2023-08-31T06:00:56;98575.72;;;19.53;57.01
10587;BME280;5341;47.606;7.576;2023-08-31T06:03:24;98581.75;;;19.55;57.00
10587;BME280;5341;47.606;7.576;2023-08-31T06:05:52;98578.78;;;19.57;56.93
10587;BME280;5341;47.606;7.576;2023-08-31T06:08:19;98583.13;;;19.58;57.07
10587;BME280;5341;47.606;7.576;2023-08-31T06:10:47;98590.19;;;19.59;57.10
10587;BME280;5341;47.606;7.576;2023-08-31T06:13:16;98595.38;;;19.60;57.12
10587;BME280;5341;47.606;7.576;2023-08-31T06:15:43;98589.13;;;19.60;57.25
10587;BME280;5341;47.606;7.576;2023-08-31T06:18:12;98597.84;;;19.62;57.02
10587;BME280;5341;47.606;7.576;2023-08-31T06:20:40;98599.72;;;19.61;57.43
10587;BME280;5341;47.606;7.576;2023-08-31T06:23:10;98599.72;;;19.61;57.38
10587;BME280;5341;47.606;7.576;2023-08-31T06:25:38;98601.41;;;19.63;57.38
10587;BME280;5341;47.606;7.576;2023-08-31T06:28:06;98601.41;;;19.63;57.45
10587;BME280;5341;47.606;7.576;2023-08-31T06:30:36;98600.34;;;19.64;57.57
10587;BME280;5341;47.606;7.576;2023-08-31T06:33:04;98601.97;;;19.65;57.43
10587;BME280;5341;47.606;7.576;2023-08-31T06:35:31;98604.69;;;19.65;57.51
10587;BME280;5341;47.606;7.576;2023-08-31T06:37:59;98607.97;;;19.67;57.61
10587;BME280;5341;47.606;7.576;2023-08-31T06:40:26;98602.56;;;19.67;57.52
10587;BME280;5341;47.606;7.576;2023-08-31T06:42:54;98599.59;;;19.68;57.49
10587;BME280;5341;47.606;7.576;2023-08-31T06:45:21;98602.88;;;19.70;57.44
10587;BME280;5341;47.606;7.576;2023-08-31T06:47:50;98593.66;;;19.71;57.40
10587;BME280;5341;47.606;7.576;2023-08-31T06:50:18;98609.69;;;19.73;57.44
10587;BME280;5341;47.606;7.576;2023-08-31T06:52:45;98608.63;;;19.74;57.42
10587;BME280;5341;47.606;7.576;2023-08-31T06:55:14;98615.47;;;19.76;57.21
10587;BME280;5341;47.606;7.576;2023-08-31T06:57:41;98617.13;;;19.77;57.35
10587;BME280;5341;47.606;7.576;2023-08-31T07:00:10;98615.22;;;19.78;57.55
10587;BME280;5341;47.606;7.576;2023-08-31T07:02:40;98614.97;;;19.79;57.52
10587;BME280;5341;47.606;7.576;2023-08-31T07:05:10;98620.72;;;19.83;57.54
10587;BME280;5341;47.606;7.576;2023-08-31T07:07:38;98622.94;;;19.86;57.53
10587;BME280;5341;47.606;7.576;2023-08-31T07:10:06;98639.00;;;19.87;57.62
10587;BME280;5341;47.606;7.576;2023-08-31T07:12:34;98628.72;;;19.89;57.56
10587;BME280;5341;47.606;7.576;2023-08-31T07:15:01;98633.91;;;19.91;57.57
10587;BME280;5341;47.606;7.576;2023-08-31T07:17:29;98636.13;;;19.94;57.69
10587;BME280;5341;47.606;7.576;2023-08-31T07:19:57;98632.09;;;19.97;57.77
10587;BME280;5341;47.606;7.576;2023-08-31T07:22:26;98634.34;;;20.00;57.61
10587;BME280;5341;47.606;7.576;2023-08-31T07:24:54;98634.09;;;20.01;57.72
10587;BME280;5341;47.606;7.576;2023-08-31T07:27:21;98640.09;;;20.03;57.85
10587;BME280;5341;47.606;7.576;2023-08-31T07:29:49;98638.19;;;20.04;57.93
10587;BME280;5341;47.606;7.576;2023-08-31T07:32:16;98645.25;;;20.05;57.83
10587;BME280;5341;47.606;7.576;2023-08-31T07:34:44;98647.72;;;20.06;57.97
10587;BME280;5341;47.606;7.576;2023-08-31T07:37:12;98644.75;;;20.08;57.89
10587;BME280;5341;47.606;7.576;2023-08-31T07:39:41;98649.13;;;20.09;57.88
10587;BME280;5341;47.606;7.576;2023-08-31T07:42:08;98654.31;;;20.10;58.06
10587;BME280;5341;47.606;7.576;2023-08-31T07:44:36;98663.06;;;20.12;58.01
10587;BME280;5341;47.606;7.576;2023-08-31T07:47:04;98663.06;;;20.12;58.08
10587;BME280;5341;47.606;7.576;2023-08-31T07:49:31;98660.66;;;20.16;58.33
10587;BME280;5341;47.606;7.576;2023-08-31T07:51:59;98665.84;;;20.17;58.33
10587;BME280;5341;47.606;7.576;2023-08-31T07:54:26;98669.94;;;20.20;58.50
10587;BME280;5341;47.606;7.576;2023-08-31T07:56:55;98671.34;;;20.23;58.41
10587;BME280;5341;47.606;7.576;2023-08-31T07:59:22;98679.25;;;20.24;58.27
10587;BME280;5341;47.606;7.576;2023-08-31T08:01:50;98683.38;;;20.27;58.26
10587;BME280;5341;47.606;7.576;2023-08-31T08:04:17;98687.72;;;20.28;58.28
10587;BME280;5341;47.606;7.576;2023-08-31T08:06:46;98686.66;;;20.29;58.29
10587;BME280;5341;47.606;7.576;2023-08-31T08:09:13;98691.00;;;20.30;58.24
10587;BME280;5341;47.606;7.576;2023-08-31T08:11:41;98702.69;;;20.30;58.21
10587;BME280;5341;47.606;7.576;2023-08-31T08:14:11;98701.63;;;20.31;58.30
10587;BME280;5341;47.606;7.576;2023-08-31T08:16:38;98700.81;;;20.31;58.32
10587;BME280;5341;47.606;7.576;2023-08-31T08:19:06;98700.56;;;20.32;58.25
10587;BME280;5341;47.606;7.576;2023-08-31T08:21:34;98688.63;;;20.33;58.11
10587;BME280;5341;47.606;7.576;2023-08-31T08:24:02;98694.88;;;20.34;58.36
10587;BME280;5341;47.606;7.576;2023-08-31T08:26:29;98697.38;;;20.35;58.17
10587;BME280;5341;47.606;7.576;2023-08-31T08:28:57;98697.94;;;20.37;58.16
10587;BME280;5341;47.606;7.576;2023-08-31T08:31:25;98696.88;;;20.38;58.37
10587;BME280;5341;47.606;7.576;2023-08-31T08:33:53;98693.66;;;20.41;58.61
10587;BME280;5341;47.606;7.576;2023-08-31T08:36:20;98690.72;;;20.43;58.57
10587;BME280;5341;47.606;7.576;2023-08-31T08:38:48;98695.66;;;20.46;58.28
10587;BME280;5341;47.606;7.576;2023-08-31T08:41:16;98697.06;;;20.48;58.37
10587;BME280;5341;47.606;7.576;2023-08-31T08:43:47;98708.25;;;20.52;58.61
10587;BME280;5341;47.606;7.576;2023-08-31T08:46:15;98715.09;;;20.55;58.89
10587;BME280;5341;47.606;7.576;2023-08-31T08:48:44;98717.53;;;20.56;58.90
10587;BME280;5341;47.606;7.576;2023-08-31T08:51:14;98707.25;;;20.58;58.72
10587;BME280;5341;47.606;7.576;2023-08-31T08:53:43;98716.00;;;20.60;58.74
10587;BME280;5341;47.606;7.576;2023-08-31T08:56:11;98724.16;;;20.60;58.33
10587;BME280;5341;47.606;7.576;2023-08-31T08:58:38;98715.19;;;20.60;58.45
10587;BME280;5341;47.606;7.576;2023-08-31T09:01:07;98721.19;;;20.62;58.76
10587;BME280;5341;47.606;7.576;2023-08-31T09:03:34;98726.13;;;20.65;58.80
10587;BME280;5341;47.606;7.576;2023-08-31T09:06:04;98723.97;;;20.67;59.09
10587;BME280;5341;47.606;7.576;2023-08-31T09:08:34;98727.00;;;20.70;59.34
10587;BME280;5341;47.606;7.576;2023-08-31T09:11:02;98729.00;;;20.75;59.29
10587;BME280;5341;47.606;7.576;2023-08-31T09:13:30;98731.19;;;20.78;59.48
10587;BME280;5341;47.606;7.576;2023-08-31T09:15:59;98725.81;;;20.83;59.38
10587;BME280;5341;47.606;7.576;2023-08-31T09:18:28;98732.69;;;20.86;59.06
10587;BME280;5341;47.606;7.576;2023-08-31T09:20:56;98725.91;;;20.88;58.66
10587;BME280;5341;47.606;7.576;2023-08-31T09:23:25;98729.78;;;20.92;58.88
10587;BME280;5341;47.606;7.576;2023-08-31T09:25:54;98733.06;;;20.94;58.53
10587;BME280;5341;47.606;7.576;2023-08-31T09:28:23;98732.59;;;20.97;58.64
10587;BME280;5341;47.606;7.576;2023-08-31T09:30:53;98731.81;;;21.02;59.21
10587;BME280;5341;47.606;7.576;2023-08-31T09:33:20;98734.13;;;21.10;59.74
10587;BME280;5341;47.606;7.576;2023-08-31T09:35:49;98729.88;;;21.19;59.40
10587;BME280;5341;47.606;7.576;2023-08-31T09:38:17;98729.72;;;21.26;59.41
10587;BME280;5341;47.606;7.576;2023-08-31T09:40:47;98727.88;;;21.31;58.89
10587;BME280;5341;47.606;7.576;2023-08-31T09:43:19;98727.97;;;21.37;58.25
10587;BME280;5341;47.606;7.576;2023-08-31T09:45:48;98732.91;;;21.40;58.12
10587;BME280;5341;47.606;7.576;2023-08-31T09:48:16;98735.09;;;21.43;57.84
10587;BME280;5341;47.606;7.576;2023-08-31T09:50:44;98737.09;;;21.47;57.92
10587;BME280;5341;47.606;7.576;2023-08-31T09:53:12;98736.31;;;21.52;57.68
10587;BME280;5341;47.606;7.576;2023-08-31T09:55:43;98740.25;;;21.61;57.67
10587;BME280;5341;47.606;7.576;2023-08-31T09:58:12;98734.09;;;21.71;57.66
10587;BME280;5341;47.606;7.576;2023-08-31T10:00:44;98734.22;;;21.81;57.43
10587;BME280;5341;47.606;7.576;2023-08-31T10:03:12;98738.72;;;21.97;57.34
10587;BME280;5341;47.606;7.576;2023-08-31T10:05:43;98730.22;;;22.15;56.56
10587;BME280;5341;47.606;7.576;2023-08-31T10:08:11;98730.88;;;22.28;56.92
10587;BME280;5341;47.606;7.576;2023-08-31T10:10:39;98737.75;;;22.35;56.51
10587;BME280;5341;47.606;7.576;2023-08-31T10:13:07;98732.03;;;22.37;55.53
10587;BME280;5341;47.606;7.576;2023-08-31T10:15:37;98733.41;;;22.34;55.06
10587;BME280;5341;47.606;7.576;2023-08-31T10:18:07;98727.91;;;22.29;55.04
10587;BME280;5341;47.606;7.576;2023-08-31T10:20:34;98728.38;;;22.21;54.84
10587;BME280;5341;47.606;7.576;2023-08-31T10:23:03;98725.84;;;22.14;54.87
10587;BME280;5341;47.606;7.576;2023-08-31T10:26:01;98727.44;;;22.10;55.17
10587;BME280;5341;47.606;7.576;2023-08-31T10:28:39;98724.88;;;22.04;55.24
10587;BME280;5341;47.606;7.576;2023-08-31T10:31:09;98722.69;;;22.01;55.26
10587;BME280;5341;47.606;7.576;2023-08-31T10:33:40;98719.16;;;22.00;55.09
10587;BME280;5341;47.606;7.576;2023-08-31T10:36:16;98715.34;;;22.01;55.17
10587;BME280;5341;47.606;7.576;2023-08-31T10:38:45;98716.50;;;22.05;54.70
10587;BME280;5341;47.606;7.576;2023-08-31T10:41:21;98713.31;;;22.13;54.37
10587;BME280;5341;47.606;7.576;2023-08-31T10:43:52;98712.03;;;22.21;53.54
10587;BME280;5341;47.606;7.576;2023-08-31T10:46:31;98709.69;;;22.35;53.47
10587;BME280;5341;47.606;7.576;2023-08-31T10:49:00;98704.88;;;22.47;53.28
10587;BME280;5341;47.606;7.576;2023-08-31T10:51:30;98706.06;;;22.56;52.81
10587;BME280;5341;47.606;7.576;2023-08-31T10:54:05;98708.50;;;22.58;52.06
10587;BME280;5341;47.606;7.576;2023-08-31T10:56:51;98707.44;;;22.59;51.72
10587;BME280;5341;47.606;7.576;2023-08-31T10:59:20;98703.63;;;22.60;51.52
10587;BME280;5341;47.606;7.576;2023-08-31T11:01:54;98704.16;;;22.57;50.48
10587;BME280;5341;47.606;7.576;2023-08-31T11:04:24;98696.72;;;22.52;50.54
10587;BME280;5341;47.606;7.576;2023-08-31T11:07:12;98702.44;;;22.50;49.90
10587;BME280;5341;47.606;7.576;2023-08-31T11:09:41;98698.34;;;22.48;50.19
10587;BME280;5341;47.606;7.576;2023-08-31T11:12:09;98704.31;;;22.45;49.75
10587;BME280;5341;47.606;7.576;2023-08-31T11:14:37;98701.88;;;22.43;50.12
10587;BME280;5341;47.606;7.576;2023-08-31T11:17:06;98699.97;;;22.44;50.03
10587;BME280;5341;47.606;7.576;2023-08-31T11:19:35;98703.25;;;22.46;49.58
10587;BME280;5341;47.606;7.576;2023-08-31T11:22:03;98702.72;;;22.49;49.60
10587;BME280;5341;47.606;7.576;2023-08-31T11:24:32;98697.88;;;22.56;49.32
10587;BME280;5341;47.606;7.576;2023-08-31T11:27:00;98702.00;;;22.64;49.08
10587;BME280;5341;47.606;7.576;2023-08-31T11:29:29;98694.44;;;22.71;49.25
10587;BME280;5341;47.606;7.576;2023-08-31T11:31:56;98693.69;;;22.80;48.69
10587;BME280;5341;47.606;7.576;2023-08-31T11:34:27;98696.50;;;22.96;48.18
10587;BME280;5341;47.606;7.576;2023-08-31T11:36:55;98693.59;;;23.07;47.77
10587;BME280;5341;47.606;7.576;2023-08-31T11:39:23;98684.31;;;23.14;47.62
10587;BME280;5341;47.606;7.576;2023-08-31T11:41:51;98681.09;;;23.22;47.36
10587;BME280;5341;47.606;7.576;2023-08-31T11:44:19;98681.13;;;23.32;47.55
10587;BME280;5341;47.606;7.576;2023-08-31T11:46:47;98688.81;;;23.40;46.62
10587;BME280;5341;47.606;7.576;2023-08-31T11:49:17;98688.88;;;23.50;46.15
10587;BME280;5341;47.606;7.576;2023-08-31T11:51:47;98684.53;;;23.59;46.14
10587;BME280;5341;47.606;7.576;2023-08-31T11:54:16;98695.47;;;23.64;45.68
10587;BME280;5341;47.606;7.576;2023-08-31T11:56:45;98702.03;;;23.63;45.33
10587;BME280;5341;47.606;7.576;2023-08-31T11:59:16;98695.19;;;23.61;44.48
10587;BME280;5341;47.606;7.576;2023-08-31T12:01:45;98704.97;;;23.57;44.41
10587;BME280;5341;47.606;7.576;2023-08-31T12:04:15;98705.78;;;23.52;44.74
10587;BME280;5341;47.606;7.576;2023-08-31T12:06:47;98700.59;;;23.51;44.51
10587;BME280;5341;47.606;7.576;2023-08-31T12:09:16;98698.94;;;23.50;44.72
10587;BME280;5341;47.606;7.576;2023-08-31T12:11:49;98701.66;;;23.50;44.87
10587;BME280;5341;47.606;7.576;2023-08-31T12:14:19;98697.06;;;23.50;44.92
10587;BME280;5341;47.606;7.576;2023-08-31T12:16:47;98695.69;;;23.53;44.95
10587;BME280;5341;47.606;7.576;2023-08-31T12:19:15;98691.59;;;23.55;44.64
10587;BME280;5341;47.606;7.576;2023-08-31T12:21:44;98693.22;;;23.56;44.28
10587;BME280;5341;47.606;7.576;2023-08-31T12:24:14;98693.00;;;23.58;44.18
10587;BME280;5341;47.606;7.576;2023-08-31T12:26:42;98693.84;;;23.63;44.59
10587;BME280;5341;47.606;7.576;2023-08-31T12:29:10;98690.31;;;23.68;44.64
10587;BME280;5341;47.606;7.576;2023-08-31T12:31:37;98687.28;;;23.70;44.45
10587;BME280;5341;47.606;7.576;2023-08-31T12:34:05;98684.56;;;23.70;44.91
10587;BME280;5341;47.606;7.576;2023-08-31T12:36:33;98689.75;;;23.71;45.58
10587;BME280;5341;47.606;7.576;2023-08-31T12:39:02;98686.47;;;23.74;45.13
10587;BME280;5341;47.606;7.576;2023-08-31T12:41:34;98690.31;;;23.78;44.52
10587;BME280;5341;47.606;7.576;2023-08-31T12:44:01;98692.50;;;23.81;45.26
10587;BME280;5341;47.606;7.576;2023-08-31T12:46:30;98688.13;;;23.85;44.34
10587;BME280;5341;47.606;7.576;2023-08-31T12:48:59;98690.06;;;23.90;43.11
10587;BME280;5341;47.606;7.576;2023-08-31T12:51:27;98689.81;;;24.02;42.99
10587;BME280;5341;47.606;7.576;2023-08-31T12:53:55;98688.47;;;24.14;42.82
10587;BME280;5341;47.606;7.576;2023-08-31T12:56:23;98684.94;;;24.24;42.33
10587;BME280;5341;47.606;7.576;2023-08-31T12:58:53;98679.44;;;24.29;42.17
10587;BME280;5341;47.606;7.576;2023-08-31T13:01:21;98679.44;;;24.29;42.48
10587;BME280;5341;47.606;7.576;2023-08-31T13:03:51;98676.16;;;24.27;42.70
10587;BME280;5341;47.606;7.576;2023-08-31T13:06:19;98684.94;;;24.24;43.00
10587;BME280;5341;47.606;7.576;2023-08-31T13:08:46;98679.44;;;24.19;43.08
10587;BME280;5341;47.606;7.576;2023-08-31T13:11:16;98669.59;;;24.18;43.35
10587;BME280;5341;47.606;7.576;2023-08-31T13:13:50;98682.19;;;24.19;43.00
10587;BME280;5341;47.606;7.576;2023-08-31T13:16:18;98669.31;;;24.19;42.94
10587;BME280;5341;47.606;7.576;2023-08-31T13:18:48;98682.19;;;24.19;43.27
10587;BME280;5341;47.606;7.576;2023-08-31T13:21:15;98666.88;;;24.18;43.49